Bugra Tomba — TCEJ — position and weather

sailwx.info

Track history (hours):
 
Tides and Currents Weather Stations Pressure Air Temp Water Temp Dewpoint Dewpoint Depression Visibility Wind Speed Wind Dir Waves Ship Positions

Bugra Tomba

Last reported at 2017-Dec-17 16:34 UTC. Time now 2017-Dec-18 13:07 UTC.
Position N 40°58' E 029°00'.

Length 99 m; draft 6.3 m.

Type: Cargo ship. MMSI: 271000025.

Date/timePositionNaut miles runAvg speedWind from/ knotsBaromVisibWave heightAir tempDewpointWater temp
2017-Dec-17 16:34N 40°58' E 029°00'1 8.2
2017-Dec-17 16:30N 40°58' E 029°01'4 8.0
2017-Dec-17 16:00N 40°55' E 029°05'4 7.8
2017-Dec-17 15:30N 40°53' E 029°09'2 3.3
2017-Dec-17 14:51N 40°53' E 029°12'0 0.0
2017-Dec-17 14:27N 40°53' E 029°12'0 0.1
2017-Dec-17 13:15N 40°53' E 029°12'0 0.1
2017-Dec-17 12:45N 40°53' E 029°12'0 0.1
2017-Dec-17 12:27N 40°53' E 029°12'0 0.0
2017-Dec-17 11:51N 40°53' E 029°12'0 0.0
2017-Dec-17 11:27N 40°53' E 029°12'0 0.0
2017-Dec-17 10:57N 40°53' E 029°12'0 0.0
2017-Dec-17 10:27N 40°53' E 029°12'0 0.0
2017-Dec-17 09:57N 40°53' E 029°12'0 0.0
2017-Dec-17 09:27N 40°53' E 029°12'0 0.0
2017-Dec-17 08:57N 40°53' E 029°12'0 0.0
2017-Dec-17 08:27N 40°53' E 029°12'0 0.0
2017-Dec-17 07:57N 40°53' E 029°12'0 0.1
2017-Dec-17 06:45N 40°53' E 029°12'0 0.0
2017-Dec-17 06:21N 40°53' E 029°12'0 0.1
2017-Dec-17 05:51N 40°53' E 029°12'0 0.0
2017-Dec-17 05:21N 40°53' E 029°12'0 0.0
2017-Dec-17 04:51N 40°53' E 029°12'0 0.1
2017-Dec-17 04:03N 40°53' E 029°12'0 0.0
2017-Dec-17 03:51N 40°53' E 029°12'0 0.1
2017-Dec-17 03:27N 40°53' E 029°12'0 0.0
2017-Dec-17 02:57N 40°53' E 029°12'0 0.0
2017-Dec-17 02:21N 40°53' E 029°12'0 0.1
2017-Dec-17 01:57N 40°52' E 029°12'0 0.7
2017-Dec-17 01:30N 40°52' E 029°12'3 6.8
2017-Dec-17 01:00N 40°50' E 029°09'4 8.0
2017-Dec-17 00:28N 40°48' E 029°04'4 7.8
2017-Dec-17 00:00N 40°46' E 028°59'4 8.1
2017-Dec-16 23:28N 40°45' E 028°54'6 8.2
2017-Dec-16 22:47N 40°40' E 028°51'  
2017-Dec-10 13:38N 40°55' E 028°49'2 7.8
2017-Dec-10 13:27N 40°55' E 028°51'3 1.0
2017-Dec-10 10:15N 40°58' E 028°55'0 0.0
2017-Dec-10 00:06N 40°58' E 028°55'1 2.6
2017-Dec-09 23:50N 40°58' E 028°55'3 5.0
2017-Dec-09 23:17N 40°59' E 028°58'  
Track history (hours):
 
Tides and Currents Weather Stations Pressure Air Temp Water Temp Dewpoint Dewpoint Depression Visibility Wind Speed Wind Dir Waves Ship Positions

Bugra Tomba

Last reported at 2017-Dec-17 16:34 UTC. Time now 2017-Dec-18 13:07 UTC.
Position N 40°58' E 029°00'.

Length 99 m; draft 6.3 m.

Type: Cargo ship. MMSI: 271000025.

Date/timePositionNaut miles runAvg speedWind from/ knotsBaromVisibWave heightAir tempDewpointWater temp
2017-Dec-17 16:34N 40°58' E 029°00'1 8.2
2017-Dec-17 16:30N 40°58' E 029°01'4 8.0
2017-Dec-17 16:00N 40°55' E 029°05'4 7.8
2017-Dec-17 15:30N 40°53' E 029°09'2 3.3
2017-Dec-17 14:51N 40°53' E 029°12'0 0.0
2017-Dec-17 14:27N 40°53' E 029°12'0 0.1
2017-Dec-17 13:15N 40°53' E 029°12'0 0.1
2017-Dec-17 12:45N 40°53' E 029°12'0 0.1
2017-Dec-17 12:27N 40°53' E 029°12'0 0.0
2017-Dec-17 11:51N 40°53' E 029°12'0 0.0
2017-Dec-17 11:27N 40°53' E 029°12'0 0.0
2017-Dec-17 10:57N 40°53' E 029°12'0 0.0
2017-Dec-17 10:27N 40°53' E 029°12'0 0.0
2017-Dec-17 09:57N 40°53' E 029°12'0 0.0
2017-Dec-17 09:27N 40°53' E 029°12'0 0.0
2017-Dec-17 08:57N 40°53' E 029°12'0 0.0
2017-Dec-17 08:27N 40°53' E 029°12'0 0.0
2017-Dec-17 07:57N 40°53' E 029°12'0 0.1
2017-Dec-17 06:45N 40°53' E 029°12'0 0.0
2017-Dec-17 06:21N 40°53' E 029°12'0 0.1
2017-Dec-17 05:51N 40°53' E 029°12'0 0.0
2017-Dec-17 05:21N 40°53' E 029°12'0 0.0
2017-Dec-17 04:51N 40°53' E 029°12'0 0.1
2017-Dec-17 04:03N 40°53' E 029°12'0 0.0
2017-Dec-17 03:51N 40°53' E 029°12'0 0.1
2017-Dec-17 03:27N 40°53' E 029°12'0 0.0
2017-Dec-17 02:57N 40°53' E 029°12'0 0.0
2017-Dec-17 02:21N 40°53' E 029°12'0 0.1
2017-Dec-17 01:57N 40°52' E 029°12'0 0.7
2017-Dec-17 01:30N 40°52' E 029°12'3 6.8
2017-Dec-17 01:00N 40°50' E 029°09'4 8.0
2017-Dec-17 00:28N 40°48' E 029°04'4 7.8
2017-Dec-17 00:00N 40°46' E 028°59'4 8.1
2017-Dec-16 23:28N 40°45' E 028°54'6 8.2
2017-Dec-16 22:47N 40°40' E 028°51'  
2017-Dec-10 13:38N 40°55' E 028°49'2 7.8
2017-Dec-10 13:27N 40°55' E 028°51'3 1.0
2017-Dec-10 10:15N 40°58' E 028°55'0 0.0
2017-Dec-10 00:06N 40°58' E 028°55'1 2.6
2017-Dec-09 23:50N 40°58' E 028°55'3 5.0
2017-Dec-09 23:17N 40°59' E 028°58'  

Dump ship's entire track history